Terminal Aerodrome Forecast
Issued by NWS

Home | Current Version | Previous Version | Text Only | Print | Product List | Glossary On
Versions: 1 2 3 4 5 6 7 8 9 10 11 12 13 14 15 16 17 18 19 20 21 22 23 24 25 26 27 28 29 30 31 32 33
381
FTUS45 KLKN 061127
TAFTPH
TAF
KTPH 061127Z 0612/0712 33012KT P6SM -SHRA VCTS BKN080CB BKN110
     FM061500 33006KT P6SM VCSH SCT050 BKN080
     FM062000 18012G22KT P6SM -SHRA OVC050
     FM070200 14008KT P6SM VCSH BKN070=

USA.gov is the U.S. government's official web portal to all federal, state and local government web resources and services.